Kealakekua, Hawaii
Current Conditions -  °F | °C
As of 4:53 AM on Friday 19 Dec 2014 (Local Time) from PHKO Reporting Station
Clear Clear  
Wind Chill: 70°   Ceiling: Unl
Heat Index: 70°   Visibility: 10mi
Dew Point: 58°   Wind: 3mph
Humidity: 65%   Direction: 70°ENE
Pressure: 30.05"   Gusts: NA
Location:  19.51°N, 155.91°W
Report Text: PHKO 191453Z AUTO 07003KT 10SM CLR 21/14 A3005 RMK AO2 SLP175 T02110144 55003 TSNO
Loading
Personal Weather Stations






























Interactive Weather Map New forecast layout! Learn more

10-Day Weather Forecast

Advertisements
Track Severe Weather on mobile